Ribeirao Pires, Brazil
Current Conditions -  °F | °C
As of 3:00 PM on Thursday 23 Oct 2014 (Local Time) from SBSP Reporting Station
Clear Clear  
Wind Chill: 81°   Ceiling: Unl
Heat Index: 81°   Visibility: 6mi
Dew Point: 57°   Wind: 12mph
Humidity: 45%   Direction: 140°SE
Pressure: 30.12"   Gusts: NA
Location:  23.72°S, 46.41°W
Report Text: SBSP 231700Z 14010KT 100V190 CAVOK 27/14 Q1020
Loading
Personal Weather Stations






























Interactive Weather Map
Tropical Storm Tracking
New forecast layout! Learn more

10-Day Weather Forecast

Advertisements
Track Severe Weather on mobile